sensor_id;sensor_type;location;lat;lon;timestamp;P1;durP1;ratioP1;P2;durP2;ratioP2
11263;SDS011;5689;48.798;9.070;2024-03-22T00:00:06;0.40;;;0.40;;
11263;SDS011;5689;48.798;9.070;2024-03-22T00:02:39;0.30;;;0.30;;
11263;SDS011;5689;48.798;9.070;2024-03-22T00:05:05;0.32;;;0.32;;
11263;SDS011;5689;48.798;9.070;2024-03-22T00:07:33;0.20;;;0.20;;
11263;SDS011;5689;48.798;9.070;2024-03-22T00:09:59;0.28;;;0.28;;
11263;SDS011;5689;48.798;9.070;2024-03-22T00:12:26;0.20;;;0.20;;
11263;SDS011;5689;48.798;9.070;2024-03-22T00:14:52;0.22;;;0.22;;
11263;SDS011;5689;48.798;9.070;2024-03-22T00:17:21;0.20;;;0.20;;
11263;SDS011;5689;48.798;9.070;2024-03-22T00:19:47;0.22;;;0.22;;
11263;SDS011;5689;48.798;9.070;2024-03-22T00:22:14;0.20;;;0.20;;
11263;SDS011;5689;48.798;9.070;2024-03-22T00:24:41;0.30;;;0.30;;
11263;SDS011;5689;48.798;9.070;2024-03-22T00:27:08;0.30;;;0.30;;
11263;SDS011;5689;48.798;9.070;2024-03-22T00:29:40;0.30;;;0.30;;
11263;SDS011;5689;48.798;9.070;2024-03-22T00:32:07;0.30;;;0.30;;
11263;SDS011;5689;48.798;9.070;2024-03-22T00:34:34;0.20;;;0.20;;
11263;SDS011;5689;48.798;9.070;2024-03-22T00:37:01;0.30;;;0.30;;
11263;SDS011;5689;48.798;9.070;2024-03-22T00:39:28;0.27;;;0.27;;
11263;SDS011;5689;48.798;9.070;2024-03-22T00:41:55;0.30;;;0.30;;
11263;SDS011;5689;48.798;9.070;2024-03-22T00:44:21;0.30;;;0.30;;
11263;SDS011;5689;48.798;9.070;2024-03-22T00:46:48;0.30;;;0.30;;
11263;SDS011;5689;48.798;9.070;2024-03-22T00:49:14;0.40;;;0.40;;
11263;SDS011;5689;48.798;9.070;2024-03-22T00:51:44;0.30;;;0.30;;
11263;SDS011;5689;48.798;9.070;2024-03-22T00:54:12;0.30;;;0.30;;
11263;SDS011;5689;48.798;9.070;2024-03-22T00:56:38;0.30;;;0.30;;
11263;SDS011;5689;48.798;9.070;2024-03-22T00:59:05;0.30;;;0.30;;
11263;SDS011;5689;48.798;9.070;2024-03-22T01:01:32;0.30;;;0.30;;
11263;SDS011;5689;48.798;9.070;2024-03-22T01:03:59;0.30;;;0.30;;
11263;SDS011;5689;48.798;9.070;2024-03-22T01:06:25;0.30;;;0.30;;
11263;SDS011;5689;48.798;9.070;2024-03-22T01:08:53;0.30;;;0.30;;
11263;SDS011;5689;48.798;9.070;2024-03-22T01:11:20;0.30;;;0.30;;
11263;SDS011;5689;48.798;9.070;2024-03-22T01:13:47;0.30;;;0.30;;
11263;SDS011;5689;48.798;9.070;2024-03-22T01:16:13;0.30;;;0.30;;
11263;SDS011;5689;48.798;9.070;2024-03-22T01:18:40;0.30;;;0.30;;
11263;SDS011;5689;48.798;9.070;2024-03-22T01:21:06;0.30;;;0.30;;
11263;SDS011;5689;48.798;9.070;2024-03-22T01:23:33;0.40;;;0.40;;
11263;SDS011;5689;48.798;9.070;2024-03-22T01:26:00;0.40;;;0.40;;
11263;SDS011;5689;48.798;9.070;2024-03-22T01:28:27;0.40;;;0.40;;
11263;SDS011;5689;48.798;9.070;2024-03-22T01:30:53;0.40;;;0.40;;
11263;SDS011;5689;48.798;9.070;2024-03-22T01:33:20;0.27;;;0.27;;
11263;SDS011;5689;48.798;9.070;2024-03-22T01:35:46;0.37;;;0.37;;
11263;SDS011;5689;48.798;9.070;2024-03-22T01:38:13;0.30;;;0.30;;
11263;SDS011;5689;48.798;9.070;2024-03-22T01:40:39;0.30;;;0.30;;
11263;SDS011;5689;48.798;9.070;2024-03-22T01:43:08;0.30;;;0.30;;
11263;SDS011;5689;48.798;9.070;2024-03-22T01:45:34;0.40;;;0.40;;
11263;SDS011;5689;48.798;9.070;2024-03-22T01:48:03;0.20;;;0.20;;
11263;SDS011;5689;48.798;9.070;2024-03-22T01:50:29;0.40;;;0.40;;
11263;SDS011;5689;48.798;9.070;2024-03-22T01:52:56;0.30;;;0.30;;
11263;SDS011;5689;48.798;9.070;2024-03-22T01:55:23;0.37;;;0.37;;
11263;SDS011;5689;48.798;9.070;2024-03-22T01:57:50;0.20;;;0.20;;
11263;SDS011;5689;48.798;9.070;2024-03-22T02:00:21;0.37;;;0.37;;
11263;SDS011;5689;48.798;9.070;2024-03-22T02:02:48;0.30;;;0.30;;
11263;SDS011;5689;48.798;9.070;2024-03-22T02:05:14;0.30;;;0.30;;
11263;SDS011;5689;48.798;9.070;2024-03-22T02:07:44;0.20;;;0.20;;
11263;SDS011;5689;48.798;9.070;2024-03-22T02:10:11;0.30;;;0.30;;
11263;SDS011;5689;48.798;9.070;2024-03-22T02:12:40;0.30;;;0.30;;
11263;SDS011;5689;48.798;9.070;2024-03-22T02:15:07;0.30;;;0.30;;
11263;SDS011;5689;48.798;9.070;2024-03-22T02:17:36;0.40;;;0.40;;
11263;SDS011;5689;48.798;9.070;2024-03-22T02:20:03;0.40;;;0.40;;
11263;SDS011;5689;48.798;9.070;2024-03-22T02:22:31;0.27;;;0.27;;
11263;SDS011;5689;48.798;9.070;2024-03-22T02:24:59;0.30;;;0.30;;
11263;SDS011;5689;48.798;9.070;2024-03-22T02:27:26;0.40;;;0.40;;
11263;SDS011;5689;48.798;9.070;2024-03-22T02:29:52;0.30;;;0.30;;
11263;SDS011;5689;48.798;9.070;2024-03-22T02:32:22;0.30;;;0.30;;
11263;SDS011;5689;48.798;9.070;2024-03-22T02:34:48;0.30;;;0.30;;
11263;SDS011;5689;48.798;9.070;2024-03-22T02:37:15;0.30;;;0.30;;
11263;SDS011;5689;48.798;9.070;2024-03-22T02:39:41;0.20;;;0.20;;
11263;SDS011;5689;48.798;9.070;2024-03-22T02:42:12;0.30;;;0.30;;
11263;SDS011;5689;48.798;9.070;2024-03-22T02:44:38;0.30;;;0.30;;
11263;SDS011;5689;48.798;9.070;2024-03-22T02:47:08;0.20;;;0.20;;
11263;SDS011;5689;48.798;9.070;2024-03-22T02:49:35;0.30;;;0.30;;
11263;SDS011;5689;48.798;9.070;2024-03-22T02:52:02;0.20;;;0.20;;
11263;SDS011;5689;48.798;9.070;2024-03-22T02:54:28;0.40;;;0.40;;
11263;SDS011;5689;48.798;9.070;2024-03-22T02:56:55;0.30;;;0.30;;
11263;SDS011;5689;48.798;9.070;2024-03-22T02:59:25;0.20;;;0.20;;
11263;SDS011;5689;48.798;9.070;2024-03-22T03:01:52;0.30;;;0.30;;
11263;SDS011;5689;48.798;9.070;2024-03-22T03:04:18;0.30;;;0.30;;
11263;SDS011;5689;48.798;9.070;2024-03-22T03:06:45;0.23;;;0.23;;
11263;SDS011;5689;48.798;9.070;2024-03-22T03:09:11;0.30;;;0.30;;
11263;SDS011;5689;48.798;9.070;2024-03-22T03:11:38;0.30;;;0.30;;
11263;SDS011;5689;48.798;9.070;2024-03-22T03:14:05;0.30;;;0.30;;
11263;SDS011;5689;48.798;9.070;2024-03-22T03:16:33;0.20;;;0.20;;
11263;SDS011;5689;48.798;9.070;2024-03-22T03:18:59;0.20;;;0.20;;
11263;SDS011;5689;48.798;9.070;2024-03-22T03:21:26;0.20;;;0.20;;
11263;SDS011;5689;48.798;9.070;2024-03-22T03:23:52;0.33;;;0.33;;
11263;SDS011;5689;48.798;9.070;2024-03-22T03:26:19;0.33;;;0.33;;
11263;SDS011;5689;48.798;9.070;2024-03-22T03:28:45;0.20;;;0.20;;
11263;SDS011;5689;48.798;9.070;2024-03-22T03:31:12;0.40;;;0.40;;
11263;SDS011;5689;48.798;9.070;2024-03-22T03:33:40;0.30;;;0.30;;
11263;SDS011;5689;48.798;9.070;2024-03-22T03:36:08;0.20;;;0.20;;
11263;SDS011;5689;48.798;9.070;2024-03-22T03:38:34;0.17;;;0.17;;
11263;SDS011;5689;48.798;9.070;2024-03-22T03:41:03;0.30;;;0.30;;
11263;SDS011;5689;48.798;9.070;2024-03-22T03:43:29;0.20;;;0.20;;
11263;SDS011;5689;48.798;9.070;2024-03-22T03:45:56;0.27;;;0.27;;
11263;SDS011;5689;48.798;9.070;2024-03-22T03:48:22;0.30;;;0.30;;
11263;SDS011;5689;48.798;9.070;2024-03-22T03:50:54;0.20;;;0.20;;
11263;SDS011;5689;48.798;9.070;2024-03-22T03:53:24;0.30;;;0.30;;
11263;SDS011;5689;48.798;9.070;2024-03-22T03:55:51;0.40;;;0.40;;
11263;SDS011;5689;48.798;9.070;2024-03-22T03:58:17;0.30;;;0.30;;
11263;SDS011;5689;48.798;9.070;2024-03-22T04:00:44;0.23;;;0.23;;
11263;SDS011;5689;48.798;9.070;2024-03-22T04:03:10;0.40;;;0.40;;
11263;SDS011;5689;48.798;9.070;2024-03-22T04:05:38;0.30;;;0.30;;
11263;SDS011;5689;48.798;9.070;2024-03-22T04:08:06;0.50;;;0.50;;
11263;SDS011;5689;48.798;9.070;2024-03-22T04:10:33;0.40;;;0.40;;
11263;SDS011;5689;48.798;9.070;2024-03-22T04:12:59;0.40;;;0.40;;
11263;SDS011;5689;48.798;9.070;2024-03-22T04:15:26;0.30;;;0.30;;
11263;SDS011;5689;48.798;9.070;2024-03-22T04:17:52;0.47;;;0.47;;
11263;SDS011;5689;48.798;9.070;2024-03-22T04:20:19;0.50;;;0.50;;
11263;SDS011;5689;48.798;9.070;2024-03-22T04:22:45;0.40;;;0.40;;
11263;SDS011;5689;48.798;9.070;2024-03-22T04:25:16;0.40;;;0.40;;
11263;SDS011;5689;48.798;9.070;2024-03-22T04:27:42;0.38;;;0.38;;
11263;SDS011;5689;48.798;9.070;2024-03-22T04:30:11;0.33;;;0.33;;
11263;SDS011;5689;48.798;9.070;2024-03-22T04:32:37;0.40;;;0.40;;
11263;SDS011;5689;48.798;9.070;2024-03-22T04:35:04;0.30;;;0.30;;
11263;SDS011;5689;48.798;9.070;2024-03-22T04:37:31;0.28;;;0.28;;
11263;SDS011;5689;48.798;9.070;2024-03-22T04:39:58;0.38;;;0.38;;
11263;SDS011;5689;48.798;9.070;2024-03-22T04:42:26;0.30;;;0.30;;
11263;SDS011;5689;48.798;9.070;2024-03-22T04:44:53;0.30;;;0.30;;
11263;SDS011;5689;48.798;9.070;2024-03-22T04:47:20;0.30;;;0.30;;
11263;SDS011;5689;48.798;9.070;2024-03-22T04:49:46;0.20;;;0.20;;
11263;SDS011;5689;48.798;9.070;2024-03-22T04:52:13;0.40;;;0.40;;
11263;SDS011;5689;48.798;9.070;2024-03-22T04:54:39;0.30;;;0.30;;
11263;SDS011;5689;48.798;9.070;2024-03-22T04:57:06;0.20;;;0.20;;
11263;SDS011;5689;48.798;9.070;2024-03-22T04:59:34;0.30;;;0.30;;
11263;SDS011;5689;48.798;9.070;2024-03-22T05:02:01;0.40;;;0.40;;
11263;SDS011;5689;48.798;9.070;2024-03-22T05:04:27;0.30;;;0.30;;
11263;SDS011;5689;48.798;9.070;2024-03-22T05:06:54;0.32;;;0.32;;
11263;SDS011;5689;48.798;9.070;2024-03-22T05:09:20;0.30;;;0.30;;
11263;SDS011;5689;48.798;9.070;2024-03-22T05:11:47;0.30;;;0.30;;
11263;SDS011;5689;48.798;9.070;2024-03-22T05:14:16;0.30;;;0.30;;
11263;SDS011;5689;48.798;9.070;2024-03-22T05:16:46;0.30;;;0.30;;
11263;SDS011;5689;48.798;9.070;2024-03-22T05:19:12;0.40;;;0.40;;
11263;SDS011;5689;48.798;9.070;2024-03-22T05:21:39;0.25;;;0.25;;
11263;SDS011;5689;48.798;9.070;2024-03-22T05:24:05;0.35;;;0.35;;
11263;SDS011;5689;48.798;9.070;2024-03-22T05:26:32;0.30;;;0.30;;
11263;SDS011;5689;48.798;9.070;2024-03-22T05:29:01;0.47;;;0.47;;
11263;SDS011;5689;48.798;9.070;2024-03-22T05:31:29;0.20;;;0.20;;
11263;SDS011;5689;48.798;9.070;2024-03-22T05:33:57;0.40;;;0.40;;
11263;SDS011;5689;48.798;9.070;2024-03-22T05:36:25;0.43;;;0.43;;
11263;SDS011;5689;48.798;9.070;2024-03-22T05:38:52;0.22;;;0.22;;
11263;SDS011;5689;48.798;9.070;2024-03-22T05:41:18;0.30;;;0.30;;
11263;SDS011;5689;48.798;9.070;2024-03-22T05:43:45;0.30;;;0.30;;
11263;SDS011;5689;48.798;9.070;2024-03-22T05:46:11;0.30;;;0.30;;
11263;SDS011;5689;48.798;9.070;2024-03-22T05:48:39;0.30;;;0.30;;
11263;SDS011;5689;48.798;9.070;2024-03-22T05:51:07;0.40;;;0.40;;
11263;SDS011;5689;48.798;9.070;2024-03-22T05:53:34;0.30;;;0.30;;
11263;SDS011;5689;48.798;9.070;2024-03-22T05:56:00;0.40;;;0.40;;
11263;SDS011;5689;48.798;9.070;2024-03-22T05:58:27;0.40;;;0.40;;
11263;SDS011;5689;48.798;9.070;2024-03-22T06:00:53;0.35;;;0.35;;
11263;SDS011;5689;48.798;9.070;2024-03-22T06:03:21;0.30;;;0.30;;
11263;SDS011;5689;48.798;9.070;2024-03-22T06:05:47;0.20;;;0.20;;
11263;SDS011;5689;48.798;9.070;2024-03-22T06:08:16;0.30;;;0.30;;
11263;SDS011;5689;48.798;9.070;2024-03-22T06:10:44;0.28;;;0.28;;
11263;SDS011;5689;48.798;9.070;2024-03-22T06:13:11;0.30;;;0.30;;
11263;SDS011;5689;48.798;9.070;2024-03-22T06:15:37;0.30;;;0.30;;
11263;SDS011;5689;48.798;9.070;2024-03-22T06:18:04;0.40;;;0.40;;
11263;SDS011;5689;48.798;9.070;2024-03-22T06:20:30;0.30;;;0.30;;
11263;SDS011;5689;48.798;9.070;2024-03-22T06:22:58;0.30;;;0.30;;
11263;SDS011;5689;48.798;9.070;2024-03-22T06:25:25;0.30;;;0.30;;
11263;SDS011;5689;48.798;9.070;2024-03-22T06:27:53;0.32;;;0.32;;
11263;SDS011;5689;48.798;9.070;2024-03-22T06:30:19;0.20;;;0.20;;
11263;SDS011;5689;48.798;9.070;2024-03-22T06:32:46;0.30;;;0.30;;
11263;SDS011;5689;48.798;9.070;2024-03-22T06:35:12;0.30;;;0.30;;
11263;SDS011;5689;48.798;9.070;2024-03-22T06:37:40;0.30;;;0.30;;
11263;SDS011;5689;48.798;9.070;2024-03-22T06:40:07;0.20;;;0.20;;
11263;SDS011;5689;48.798;9.070;2024-03-22T06:42:36;0.20;;;0.20;;
11263;SDS011;5689;48.798;9.070;2024-03-22T06:45:02;0.20;;;0.20;;
11263;SDS011;5689;48.798;9.070;2024-03-22T06:47:30;0.20;;;0.20;;
11263;SDS011;5689;48.798;9.070;2024-03-22T06:49:56;0.20;;;0.20;;
11263;SDS011;5689;48.798;9.070;2024-03-22T06:52:23;0.20;;;0.20;;
11263;SDS011;5689;48.798;9.070;2024-03-22T06:54:49;0.30;;;0.30;;
11263;SDS011;5689;48.798;9.070;2024-03-22T06:57:17;0.20;;;0.20;;
11263;SDS011;5689;48.798;9.070;2024-03-22T06:59:45;0.20;;;0.20;;
11263;SDS011;5689;48.798;9.070;2024-03-22T07:02:12;0.10;;;0.10;;
11263;SDS011;5689;48.798;9.070;2024-03-22T07:04:39;0.10;;;0.10;;
11263;SDS011;5689;48.798;9.070;2024-03-22T07:07:07;0.10;;;0.10;;
11263;SDS011;5689;48.798;9.070;2024-03-22T07:09:33;0.10;;;0.10;;
11263;SDS011;5689;48.798;9.070;2024-03-22T07:12:01;0.10;;;0.10;;
11263;SDS011;5689;48.798;9.070;2024-03-22T07:14:29;0.20;;;0.20;;
11263;SDS011;5689;48.798;9.070;2024-03-22T07:16:57;0.17;;;0.17;;
11263;SDS011;5689;48.798;9.070;2024-03-22T07:19:23;0.20;;;0.20;;
11263;SDS011;5689;48.798;9.070;2024-03-22T07:21:50;0.10;;;0.10;;
11263;SDS011;5689;48.798;9.070;2024-03-22T07:24:16;0.10;;;0.10;;
11263;SDS011;5689;48.798;9.070;2024-03-22T07:26:43;0.10;;;0.10;;
11263;SDS011;5689;48.798;9.070;2024-03-22T07:29:09;0.10;;;0.10;;
11263;SDS011;5689;48.798;9.070;2024-03-22T07:31:36;0.20;;;0.20;;
11263;SDS011;5689;48.798;9.070;2024-03-22T07:34:04;0.10;;;0.10;;
11263;SDS011;5689;48.798;9.070;2024-03-22T07:36:31;0.10;;;0.10;;
11263;SDS011;5689;48.798;9.070;2024-03-22T07:38:57;0.10;;;0.10;;
11263;SDS011;5689;48.798;9.070;2024-03-22T07:41:24;0.10;;;0.10;;
11263;SDS011;5689;48.798;9.070;2024-03-22T07:43:50;0.10;;;0.10;;
11263;SDS011;5689;48.798;9.070;2024-03-22T07:46:18;0.15;;;0.15;;
11263;SDS011;5689;48.798;9.070;2024-03-22T07:48:44;0.10;;;0.10;;
11263;SDS011;5689;48.798;9.070;2024-03-22T07:51:12;0.10;;;0.10;;
11263;SDS011;5689;48.798;9.070;2024-03-22T07:53:39;0.10;;;0.10;;
11263;SDS011;5689;48.798;9.070;2024-03-22T07:56:06;0.10;;;0.10;;
11263;SDS011;5689;48.798;9.070;2024-03-22T07:58:32;0.10;;;0.10;;
11263;SDS011;5689;48.798;9.070;2024-03-22T08:00:59;0.10;;;0.10;;
11263;SDS011;5689;48.798;9.070;2024-03-22T08:03:25;0.10;;;0.10;;
11263;SDS011;5689;48.798;9.070;2024-03-22T08:05:52;0.10;;;0.10;;
11263;SDS011;5689;48.798;9.070;2024-03-22T08:08:19;0.10;;;0.10;;
11263;SDS011;5689;48.798;9.070;2024-03-22T08:10:46;0.00;;;0.00;;
11263;SDS011;5689;48.798;9.070;2024-03-22T08:13:12;0.10;;;0.10;;
11263;SDS011;5689;48.798;9.070;2024-03-22T08:15:39;0.08;;;0.08;;
11263;SDS011;5689;48.798;9.070;2024-03-22T08:18:06;0.10;;;0.10;;
11263;SDS011;5689;48.798;9.070;2024-03-22T08:20:34;0.00;;;0.00;;
11263;SDS011;5689;48.798;9.070;2024-03-22T08:23:00;0.00;;;0.00;;
11263;SDS011;5689;48.798;9.070;2024-03-22T08:25:28;0.00;;;0.00;;
11263;SDS011;5689;48.798;9.070;2024-03-22T08:27:56;0.00;;;0.00;;
11263;SDS011;5689;48.798;9.070;2024-03-22T08:30:23;0.00;;;0.00;;
11263;SDS011;5689;48.798;9.070;2024-03-22T08:32:50;0.05;;;0.05;;
11263;SDS011;5689;48.798;9.070;2024-03-22T08:35:17;0.10;;;0.10;;
11263;SDS011;5689;48.798;9.070;2024-03-22T08:37:44;0.10;;;0.10;;
11263;SDS011;5689;48.798;9.070;2024-03-22T08:40:11;0.10;;;0.10;;
11263;SDS011;5689;48.798;9.070;2024-03-22T08:42:40;0.10;;;0.10;;
11263;SDS011;5689;48.798;9.070;2024-03-22T08:45:08;0.10;;;0.10;;
11263;SDS011;5689;48.798;9.070;2024-03-22T08:47:34;0.10;;;0.10;;
11263;SDS011;5689;48.798;9.070;2024-03-22T08:50:01;0.10;;;0.10;;
11263;SDS011;5689;48.798;9.070;2024-03-22T08:52:27;0.10;;;0.10;;
11263;SDS011;5689;48.798;9.070;2024-03-22T08:54:55;0.10;;;0.10;;
11263;SDS011;5689;48.798;9.070;2024-03-22T08:57:21;0.10;;;0.10;;
11263;SDS011;5689;48.798;9.070;2024-03-22T08:59:50;0.10;;;0.10;;
11263;SDS011;5689;48.798;9.070;2024-03-22T09:02:16;0.10;;;0.10;;
11263;SDS011;5689;48.798;9.070;2024-03-22T09:04:43;0.10;;;0.10;;
11263;SDS011;5689;48.798;9.070;2024-03-22T09:07:09;0.10;;;0.10;;
11263;SDS011;5689;48.798;9.070;2024-03-22T09:09:36;0.10;;;0.10;;
11263;SDS011;5689;48.798;9.070;2024-03-22T09:12:02;0.10;;;0.10;;
11263;SDS011;5689;48.798;9.070;2024-03-22T09:14:29;0.00;;;0.00;;
11263;SDS011;5689;48.798;9.070;2024-03-22T09:16:57;0.00;;;0.00;;
11263;SDS011;5689;48.798;9.070;2024-03-22T09:19:24;0.10;;;0.10;;
11263;SDS011;5689;48.798;9.070;2024-03-22T09:21:50;0.10;;;0.10;;
11263;SDS011;5689;48.798;9.070;2024-03-22T09:24:17;0.00;;;0.00;;
11263;SDS011;5689;48.798;9.070;2024-03-22T09:26:43;0.10;;;0.10;;
11263;SDS011;5689;48.798;9.070;2024-03-22T09:29:10;0.10;;;0.10;;
11263;SDS011;5689;48.798;9.070;2024-03-22T09:31:38;0.10;;;0.10;;
11263;SDS011;5689;48.798;9.070;2024-03-22T09:34:06;0.00;;;0.00;;
11263;SDS011;5689;48.798;9.070;2024-03-22T09:36:32;0.10;;;0.10;;
11263;SDS011;5689;48.798;9.070;2024-03-22T09:39:00;0.10;;;0.10;;
11263;SDS011;5689;48.798;9.070;2024-03-22T09:41:27;0.10;;;0.10;;
11263;SDS011;5689;48.798;9.070;2024-03-22T09:43:54;0.00;;;0.00;;
11263;SDS011;5689;48.798;9.070;2024-03-22T09:46:24;0.10;;;0.10;;
11263;SDS011;5689;48.798;9.070;2024-03-22T09:48:51;0.10;;;0.10;;
11263;SDS011;5689;48.798;9.070;2024-03-22T09:51:20;0.10;;;0.10;;
11263;SDS011;5689;48.798;9.070;2024-03-22T09:53:48;0.10;;;0.10;;
11263;SDS011;5689;48.798;9.070;2024-03-22T09:56:15;0.00;;;0.00;;
11263;SDS011;5689;48.798;9.070;2024-03-22T09:58:45;0.00;;;0.00;;
11263;SDS011;5689;48.798;9.070;2024-03-22T10:01:11;0.10;;;0.10;;
11263;SDS011;5689;48.798;9.070;2024-03-22T10:03:38;0.00;;;0.00;;
11263;SDS011;5689;48.798;9.070;2024-03-22T10:06:05;0.08;;;0.08;;
11263;SDS011;5689;48.798;9.070;2024-03-22T10:08:34;0.00;;;0.00;;
11263;SDS011;5689;48.798;9.070;2024-03-22T10:11:01;0.10;;;0.10;;
11263;SDS011;5689;48.798;9.070;2024-03-22T10:13:29;0.10;;;0.10;;
11263;SDS011;5689;48.798;9.070;2024-03-22T10:15:57;0.10;;;0.10;;
11263;SDS011;5689;48.798;9.070;2024-03-22T10:18:26;0.00;;;0.00;;
11263;SDS011;5689;48.798;9.070;2024-03-22T10:20:58;0.10;;;0.10;;
11263;SDS011;5689;48.798;9.070;2024-03-22T10:23:27;0.10;;;0.10;;
11263;SDS011;5689;48.798;9.070;2024-03-22T10:25:55;0.03;;;0.03;;
11263;SDS011;5689;48.798;9.070;2024-03-22T10:28:23;0.10;;;0.10;;
11263;SDS011;5689;48.798;9.070;2024-03-22T10:30:50;0.10;;;0.10;;
11263;SDS011;5689;48.798;9.070;2024-03-22T10:33:19;0.10;;;0.10;;
11263;SDS011;5689;48.798;9.070;2024-03-22T10:35:46;0.00;;;0.00;;
11263;SDS011;5689;48.798;9.070;2024-03-22T10:38:13;0.10;;;0.10;;
11263;SDS011;5689;48.798;9.070;2024-03-22T10:40:42;0.10;;;0.10;;
11263;SDS011;5689;48.798;9.070;2024-03-22T10:43:13;0.00;;;0.00;;
11263;SDS011;5689;48.798;9.070;2024-03-22T10:45:39;0.10;;;0.10;;
11263;SDS011;5689;48.798;9.070;2024-03-22T10:48:08;0.00;;;0.00;;
11263;SDS011;5689;48.798;9.070;2024-03-22T10:50:37;0.10;;;0.10;;
11263;SDS011;5689;48.798;9.070;2024-03-22T10:53:06;0.10;;;0.10;;
11263;SDS011;5689;48.798;9.070;2024-03-22T10:55:35;0.10;;;0.10;;
11263;SDS011;5689;48.798;9.070;2024-03-22T10:58:05;0.00;;;0.00;;
11263;SDS011;5689;48.798;9.070;2024-03-22T11:00:33;0.00;;;0.00;;
11263;SDS011;5689;48.798;9.070;2024-03-22T11:03:02;0.00;;;0.00;;
11263;SDS011;5689;48.798;9.070;2024-03-22T11:05:28;0.00;;;0.00;;
11263;SDS011;5689;48.798;9.070;2024-03-22T11:07:59;0.00;;;0.00;;
11263;SDS011;5689;48.798;9.070;2024-03-22T11:10:26;0.00;;;0.00;;
11263;SDS011;5689;48.798;9.070;2024-03-22T11:13:00;0.10;;;0.10;;
11263;SDS011;5689;48.798;9.070;2024-03-22T11:15:27;0.00;;;0.00;;
11263;SDS011;5689;48.798;9.070;2024-03-22T11:17:56;0.00;;;0.00;;
11263;SDS011;5689;48.798;9.070;2024-03-22T11:20:22;0.10;;;0.10;;
11263;SDS011;5689;48.798;9.070;2024-03-22T11:22:50;0.10;;;0.10;;
11263;SDS011;5689;48.798;9.070;2024-03-22T11:25:17;0.00;;;0.00;;
11263;SDS011;5689;48.798;9.070;2024-03-22T11:27:44;0.00;;;0.00;;
11263;SDS011;5689;48.798;9.070;2024-03-22T11:30:10;0.00;;;0.00;;
11263;SDS011;5689;48.798;9.070;2024-03-22T11:32:38;0.00;;;0.00;;
11263;SDS011;5689;48.798;9.070;2024-03-22T11:35:10;0.00;;;0.00;;
11263;SDS011;5689;48.798;9.070;2024-03-22T11:37:38;0.00;;;0.00;;
11263;SDS011;5689;48.798;9.070;2024-03-22T11:40:04;0.00;;;0.00;;
11263;SDS011;5689;48.798;9.070;2024-03-22T11:42:33;0.00;;;0.00;;
11263;SDS011;5689;48.798;9.070;2024-03-22T11:45:00;0.00;;;0.00;;
11263;SDS011;5689;48.798;9.070;2024-03-22T11:47:28;0.00;;;0.00;;
11263;SDS011;5689;48.798;9.070;2024-03-22T11:49:55;0.00;;;0.00;;
11263;SDS011;5689;48.798;9.070;2024-03-22T11:52:25;0.00;;;0.00;;
11263;SDS011;5689;48.798;9.070;2024-03-22T11:54:51;0.00;;;0.00;;
11263;SDS011;5689;48.798;9.070;2024-03-22T11:57:20;0.05;;;0.05;;
11263;SDS011;5689;48.798;9.070;2024-03-22T11:59:46;0.00;;;0.00;;
11263;SDS011;5689;48.798;9.070;2024-03-22T12:02:13;0.00;;;0.00;;
11263;SDS011;5689;48.798;9.070;2024-03-22T12:04:41;0.10;;;0.10;;
11263;SDS011;5689;48.798;9.070;2024-03-22T12:07:10;0.00;;;0.00;;
11263;SDS011;5689;48.798;9.070;2024-03-22T12:09:38;0.00;;;0.00;;
11263;SDS011;5689;48.798;9.070;2024-03-22T12:12:06;0.00;;;0.00;;
11263;SDS011;5689;48.798;9.070;2024-03-22T12:14:34;0.10;;;0.10;;
11263;SDS011;5689;48.798;9.070;2024-03-22T12:17:01;0.10;;;0.10;;
11263;SDS011;5689;48.798;9.070;2024-03-22T12:19:28;0.00;;;0.00;;
11263;SDS011;5689;48.798;9.070;2024-03-22T12:21:54;0.00;;;0.00;;
11263;SDS011;5689;48.798;9.070;2024-03-22T12:24:21;0.10;;;0.10;;
11263;SDS011;5689;48.798;9.070;2024-03-22T12:26:49;0.10;;;0.10;;
11263;SDS011;5689;48.798;9.070;2024-03-22T12:29:16;0.10;;;0.10;;
11263;SDS011;5689;48.798;9.070;2024-03-22T12:31:43;0.10;;;0.10;;
11263;SDS011;5689;48.798;9.070;2024-03-22T12:34:10;0.10;;;0.10;;
11263;SDS011;5689;48.798;9.070;2024-03-22T12:36:37;0.10;;;0.10;;
11263;SDS011;5689;48.798;9.070;2024-03-22T12:39:04;0.10;;;0.10;;
11263;SDS011;5689;48.798;9.070;2024-03-22T12:41:31;0.10;;;0.10;;
11263;SDS011;5689;48.798;9.070;2024-03-22T12:43:59;0.10;;;0.10;;
11263;SDS011;5689;48.798;9.070;2024-03-22T12:46:27;0.10;;;0.10;;
11263;SDS011;5689;48.798;9.070;2024-03-22T12:48:53;0.10;;;0.10;;
11263;SDS011;5689;48.798;9.070;2024-03-22T12:51:20;0.10;;;0.10;;
11263;SDS011;5689;48.798;9.070;2024-03-22T12:53:46;0.00;;;0.00;;
11263;SDS011;5689;48.798;9.070;2024-03-22T12:56:14;0.03;;;0.03;;
11263;SDS011;5689;48.798;9.070;2024-03-22T12:58:41;0.00;;;0.00;;
11263;SDS011;5689;48.798;9.070;2024-03-22T13:01:09;0.03;;;0.03;;
11263;SDS011;5689;48.798;9.070;2024-03-22T13:03:36;0.10;;;0.10;;
11263;SDS011;5689;48.798;9.070;2024-03-22T13:06:03;0.00;;;0.00;;
11263;SDS011;5689;48.798;9.070;2024-03-22T13:08:30;0.10;;;0.10;;
11263;SDS011;5689;48.798;9.070;2024-03-22T13:10:57;0.10;;;0.10;;
11263;SDS011;5689;48.798;9.070;2024-03-22T13:13:25;0.08;;;0.08;;
11263;SDS011;5689;48.798;9.070;2024-03-22T13:15:52;0.10;;;0.10;;
11263;SDS011;5689;48.798;9.070;2024-03-22T13:18:19;0.10;;;0.10;;
11263;SDS011;5689;48.798;9.070;2024-03-22T13:20:46;0.10;;;0.10;;
11263;SDS011;5689;48.798;9.070;2024-03-22T13:23:12;0.10;;;0.10;;
11263;SDS011;5689;48.798;9.070;2024-03-22T13:25:39;0.10;;;0.10;;
11263;SDS011;5689;48.798;9.070;2024-03-22T13:28:05;0.00;;;0.00;;
11263;SDS011;5689;48.798;9.070;2024-03-22T13:30:33;0.10;;;0.10;;
11263;SDS011;5689;48.798;9.070;2024-03-22T13:33:00;0.10;;;0.10;;
11263;SDS011;5689;48.798;9.070;2024-03-22T13:35:29;0.05;;;0.05;;
11263;SDS011;5689;48.798;9.070;2024-03-22T13:37:56;0.10;;;0.10;;
11263;SDS011;5689;48.798;9.070;2024-03-22T13:40:23;0.00;;;0.00;;
11263;SDS011;5689;48.798;9.070;2024-03-22T13:42:52;0.10;;;0.10;;
11263;SDS011;5689;48.798;9.070;2024-03-22T13:45:19;0.10;;;0.10;;
11263;SDS011;5689;48.798;9.070;2024-03-22T13:47:46;0.00;;;0.00;;
11263;SDS011;5689;48.798;9.070;2024-03-22T13:50:13;0.00;;;0.00;;
11263;SDS011;5689;48.798;9.070;2024-03-22T13:52:41;0.00;;;0.00;;
11263;SDS011;5689;48.798;9.070;2024-03-22T13:55:07;0.00;;;0.00;;
11263;SDS011;5689;48.798;9.070;2024-03-22T13:57:34;0.00;;;0.00;;
11263;SDS011;5689;48.798;9.070;2024-03-22T14:00:00;0.00;;;0.00;;
11263;SDS011;5689;48.798;9.070;2024-03-22T14:02:38;0.10;;;0.10;;
11263;SDS011;5689;48.798;9.070;2024-03-22T14:05:04;0.10;;;0.10;;
11263;SDS011;5689;48.798;9.070;2024-03-22T14:07:33;0.00;;;0.00;;
11263;SDS011;5689;48.798;9.070;2024-03-22T14:10:01;0.10;;;0.10;;
11263;SDS011;5689;48.798;9.070;2024-03-22T14:12:28;0.00;;;0.00;;
11263;SDS011;5689;48.798;9.070;2024-03-22T14:14:54;0.00;;;0.00;;
11263;SDS011;5689;48.798;9.070;2024-03-22T14:17:21;0.10;;;0.10;;
11263;SDS011;5689;48.798;9.070;2024-03-22T14:19:47;0.05;;;0.05;;
11263;SDS011;5689;48.798;9.070;2024-03-22T14:22:14;0.10;;;0.10;;
11263;SDS011;5689;48.798;9.070;2024-03-22T14:24:40;0.10;;;0.10;;
11263;SDS011;5689;48.798;9.070;2024-03-22T14:27:09;0.10;;;0.10;;
11263;SDS011;5689;48.798;9.070;2024-03-22T14:29:35;0.10;;;0.10;;
11263;SDS011;5689;48.798;9.070;2024-03-22T14:32:02;0.10;;;0.10;;
11263;SDS011;5689;48.798;9.070;2024-03-22T14:34:28;0.00;;;0.00;;
11263;SDS011;5689;48.798;9.070;2024-03-22T14:36:56;0.00;;;0.00;;
11263;SDS011;5689;48.798;9.070;2024-03-22T14:39:22;0.10;;;0.10;;
11263;SDS011;5689;48.798;9.070;2024-03-22T14:41:49;0.10;;;0.10;;
11263;SDS011;5689;48.798;9.070;2024-03-22T14:44:16;0.10;;;0.10;;
11263;SDS011;5689;48.798;9.070;2024-03-22T14:46:43;0.00;;;0.00;;
11263;SDS011;5689;48.798;9.070;2024-03-22T14:49:10;0.00;;;0.00;;
11263;SDS011;5689;48.798;9.070;2024-03-22T14:51:37;0.08;;;0.03;;
11263;SDS011;5689;48.798;9.070;2024-03-22T14:54:03;0.10;;;0.10;;
11263;SDS011;5689;48.798;9.070;2024-03-22T14:56:31;0.05;;;0.05;;
11263;SDS011;5689;48.798;9.070;2024-03-22T14:58:57;0.10;;;0.10;;